Time;durP1;ratioP1;P1;durP2;ratioP2;P2;SDS_P1;SDS_P2;PMS_P1;PMS_P2;Temp;Humidity;BMP_temperature;BMP_pressure;BME280_temperature;BME280_humidity;BME280_pressure;Samples;Min_cycle;Max_cycle;Signal;HPM_P1;HPM_P2
2023/05/08 00:01:36;;;;;;;2.15;1.90;;;22.80;49.20;;;;;;7642514;22;80446;-59
2023/05/08 00:04:37;;;;;;;2.95;2.25;;;22.80;49.10;;;;;;7641503;22;80333;-59
2023/05/08 00:07:37;;;;;;;2.60;2.13;;;22.80;49.00;;;;;;7642301;22;80438;-59
2023/05/08 00:10:38;;;;;;;3.38;2.03;;;22.80;49.10;;;;;;7643501;22;81127;-58
2023/05/08 00:13:40;;;;;;;2.95;2.00;;;22.80;49.00;;;;;;7643589;22;80693;-58
2023/05/08 00:16:40;;;;;;;3.53;2.05;;;22.80;49.00;;;;;;7642660;22;80524;-58
2023/05/08 00:19:41;;;;;;;2.38;1.85;;;22.80;48.90;;;;;;7643475;22;81153;-58
2023/05/08 00:22:41;;;;;;;2.00;1.80;;;22.80;48.90;;;;;;7641189;22;80372;-58
2023/05/08 00:25:42;;;;;;;3.08;1.80;;;22.80;48.80;;;;;;7641537;22;80338;-59
2023/05/08 00:28:42;;;;;;;2.58;1.92;;;22.80;48.80;;;;;;7641390;22;80338;-58
2023/05/08 00:31:43;;;;;;;1.85;1.45;;;22.80;49.00;;;;;;7641134;22;80344;-58
2023/05/08 00:34:43;;;;;;;2.20;1.67;;;22.80;49.10;;;;;;7642639;22;80790;-64
2023/05/08 00:37:44;;;;;;;3.20;2.10;;;22.80;48.90;;;;;;7641200;22;80838;-62
2023/05/08 00:40:45;;;;;;;2.33;1.92;;;22.80;48.80;;;;;;7615149;22;81854;-63
2023/05/08 00:43:45;;;;;;;4.05;1.92;;;22.80;48.80;;;;;;7642079;22;80895;-62
2023/05/08 00:46:46;;;;;;;2.95;2.22;;;22.80;48.70;;;;;;7615221;22;81914;-62
2023/05/08 00:49:46;;;;;;;2.15;1.63;;;22.80;48.70;;;;;;7642858;22;80787;-63
2023/05/08 00:52:47;;;;;;;2.50;1.70;;;22.80;48.60;;;;;;7614812;22;81814;-62
2023/05/08 00:55:47;;;;;;;1.80;1.70;;;22.80;48.60;;;;;;7615548;22;83170;-62
2023/05/08 00:58:48;;;;;;;1.80;1.70;;;22.80;48.40;;;;;;7642367;22;80500;-62
2023/05/08 01:01:48;;;;;;;2.60;1.90;;;22.80;48.40;;;;;;7614339;22;83170;-62
2023/05/08 01:04:49;;;;;;;2.47;1.80;;;22.80;48.50;;;;;;7615643;22;83328;-61
2023/05/08 01:07:50;;;;;;;2.35;1.92;;;22.80;48.60;;;;;;7615483;22;81386;-61
2023/05/08 01:10:50;;;;;;;1.75;1.65;;;22.80;48.50;;;;;;7642138;22;81445;-61
2023/05/08 01:13:51;;;;;;;1.63;1.35;;;22.80;48.50;;;;;;7614680;22;83984;-60
2023/05/08 01:16:51;;;;;;;4.00;1.83;;;22.80;48.70;;;;;;7642448;22;80396;-60
2023/05/08 01:19:52;;;;;;;3.15;2.00;;;22.80;48.60;;;;;;7615281;22;83127;-60
2023/05/08 01:22:52;;;;;;;2.35;1.65;;;22.80;48.60;;;;;;7641989;22;80289;-61
2023/05/08 01:25:53;;;;;;;1.50;1.40;;;22.80;48.40;;;;;;7615764;22;81704;-60
2023/05/08 01:28:53;;;;;;;1.63;1.50;;;22.80;48.40;;;;;;7610468;22;81468;-61
2023/05/08 01:31:54;;;;;;;1.95;1.75;;;22.80;48.50;;;;;;7614922;22;83265;-60
2023/05/08 01:34:55;;;;;;;2.05;1.55;;;22.80;48.30;;;;;;7614761;22;82019;-61
2023/05/08 01:37:55;;;;;;;2.50;1.60;;;22.80;48.10;;;;;;7643259;22;80549;-61
2023/05/08 01:40:56;;;;;;;2.88;1.60;;;22.70;48.20;;;;;;7615089;22;81642;-60
2023/05/08 01:43:56;;;;;;;1.80;1.55;;;22.80;48.20;;;;;;7615178;22;81750;-61
2023/05/08 01:46:57;;;;;;;2.70;1.70;;;22.70;48.20;;;;;;7642702;22;80553;-61
2023/05/08 01:49:57;;;;;;;2.38;1.70;;;22.70;48.10;;;;;;7641447;22;80308;-60
2023/05/08 01:52:58;;;;;;;2.67;1.77;;;22.70;48.20;;;;;;7615362;22;81588;-62
2023/05/08 01:55:59;;;;;;;1.90;1.70;;;22.70;48.20;;;;;;7641667;22;80659;-60
2023/05/08 01:58:59;;;;;;;1.90;1.65;;;22.70;48.00;;;;;;7614367;22;82137;-61
2023/05/08 02:02:00;;;;;;;2.10;1.75;;;22.70;48.50;;;;;;7615247;22;83146;-61
2023/05/08 02:05:00;;;;;;;1.90;1.48;;;22.70;47.90;;;;;;7615613;22;82812;-62
2023/05/08 02:08:01;;;;;;;1.92;1.75;;;22.70;47.90;;;;;;7615376;22;83323;-62
2023/05/08 02:11:01;;;;;;;1.52;1.42;;;22.70;47.60;;;;;;7615966;22;81427;-63
2023/05/08 02:14:02;;;;;;;3.45;1.67;;;22.70;47.50;;;;;;7614900;22;83284;-63
2023/05/08 02:17:02;;;;;;;1.45;1.35;;;22.70;47.30;;;;;;7615933;22;81494;-63
2023/05/08 02:20:03;;;;;;;1.48;1.30;;;22.80;47.30;;;;;;7640539;22;80868;-61
2023/05/08 02:23:04;;;;;;;1.85;1.73;;;22.80;47.30;;;;;;7614003;22;83363;-60
2023/05/08 02:26:04;;;;;;;2.42;1.77;;;22.80;47.30;;;;;;7641146;22;80597;-61
2023/05/08 02:29:05;;;;;;;2.03;1.60;;;22.80;47.10;;;;;;7641023;22;85000;-62
2023/05/08 02:32:06;;;;;;;1.60;1.50;;;22.80;47.20;;;;;;7640900;22;80328;-61
2023/05/08 02:35:06;;;;;;;2.45;1.60;;;22.80;47.10;;;;;;7615320;22;83957;-61
2023/05/08 02:38:09;;;;;;;2.55;1.70;;;22.80;47.20;;;;;;7615242;22;82690;-61
2023/05/08 02:41:10;;;;;;;1.52;1.40;;;22.80;47.30;;;;;;7614219;22;85959;-62
2023/05/08 02:44:10;;;;;;;1.73;1.38;;;22.80;48.00;;;;;;7640453;22;80549;-63
2023/05/08 02:47:12;;;;;;;3.80;1.67;;;22.80;47.10;;;;;;7614612;22;82275;-61
2023/05/08 02:50:12;;;;;;;2.20;1.50;;;22.80;47.10;;;;;;7641384;22;80151;-60
2023/05/08 02:53:13;;;;;;;1.50;1.40;;;22.80;46.90;;;;;;7642019;22;80141;-61
2023/05/08 02:56:13;;;;;;;2.28;1.52;;;22.80;47.10;;;;;;7614856;22;81542;-61
2023/05/08 02:59:15;;;;;;;5.43;1.80;;;22.80;46.90;;;;;;7642537;22;80133;-61
2023/05/08 03:02:16;;;;;;;2.72;1.90;;;22.80;46.90;;;;;;7615711;22;82993;-61
2023/05/08 03:05:17;;;;;;;1.80;1.63;;;22.80;47.00;;;;;;7615438;22;82856;-62
2023/05/08 03:08:18;;;;;;;2.22;1.50;;;22.80;46.90;;;;;;7614838;22;83656;-63
2023/05/08 03:11:18;;;;;;;2.05;1.73;;;22.80;46.80;;;;;;7641323;22;80580;-62
2023/05/08 03:14:19;;;;;;;2.38;1.52;;;22.80;46.60;;;;;;7616730;22;81952;-63
2023/05/08 03:17:20;;;;;;;2.40;1.80;;;22.80;46.80;;;;;;7643826;22;80107;-62
2023/05/08 03:20:20;;;;;;;2.63;1.45;;;22.80;46.80;;;;;;7643892;22;80414;-62
2023/05/08 03:23:21;;;;;;;2.88;1.60;;;22.80;46.90;;;;;;7617256;22;83179;-62
2023/05/08 03:26:22;;;;;;;1.70;1.60;;;22.80;46.90;;;;;;7643473;22;80422;-63
2023/05/08 03:29:24;;;;;;;1.83;1.40;;;22.80;46.90;;;;;;7616656;22;83239;-64
2023/05/08 03:32:25;;;;;;;1.75;1.50;;;22.80;46.90;;;;;;7641978;22;84180;-65
2023/05/08 03:35:25;;;;;;;2.95;1.80;;;22.80;47.00;;;;;;7642595;22;80467;-62
2023/05/08 03:38:26;;;;;;;1.67;1.30;;;22.80;47.10;;;;;;7642843;22;80409;-64
2023/05/08 03:41:27;;;;;;;4.68;1.50;;;22.70;46.80;;;;;;7643404;22;81228;-64
2023/05/08 03:44:27;;;;;;;1.98;1.60;;;22.70;46.70;;;;;;7616122;22;83691;-64
2023/05/08 03:47:28;;;;;;;2.60;1.45;;;22.80;46.80;;;;;;7642293;22;80522;-65
2023/05/08 03:50:29;;;;;;;1.50;1.40;;;22.80;46.80;;;;;;7615731;22;82228;-65
2023/05/08 03:53:30;;;;;;;1.83;1.50;;;22.70;46.60;;;;;;7642841;22;82953;-62
2023/05/08 03:56:31;;;;;;;1.85;1.70;;;22.70;46.40;;;;;;7616764;22;82385;-61
2023/05/08 03:59:31;;;;;;;5.40;1.70;;;22.70;46.40;;;;;;7644004;22;81114;-60
2023/05/08 04:02:32;;;;;;;2.72;2.10;;;22.70;46.30;;;;;;7643248;22;80499;-59
2023/05/08 04:05:33;;;;;;;5.90;1.70;;;22.70;46.20;;;;;;7642546;22;80310;-61
2023/05/08 04:08:33;;;;;;;6.05;1.75;;;22.70;46.20;;;;;;7615194;22;82757;-60
2023/05/08 04:11:34;;;;;;;3.78;1.58;;;22.70;46.20;;;;;;7641049;22;80406;-59
2023/05/08 04:14:34;;;;;;;1.35;1.25;;;22.70;46.10;;;;;;7611167;22;83295;-61
2023/05/08 04:17:35;;;;;;;1.60;1.50;;;22.70;46.20;;;;;;7613772;22;83166;-60
2023/05/08 04:20:36;;;;;;;1.58;1.45;;;22.70;46.30;;;;;;7639317;22;80925;-61
2023/05/08 04:23:36;;;;;;;4.20;1.48;;;22.70;46.30;;;;;;7609752;22;82617;-60
2023/05/08 04:26:37;;;;;;;3.60;1.70;;;22.70;46.70;;;;;;7614864;22;83122;-64
2023/05/08 04:29:37;;;;;;;3.67;1.77;;;22.70;46.60;;;;;;7614197;22;81815;-59
2023/05/08 04:32:38;;;;;;;7.45;1.80;;;22.60;46.40;;;;;;7641389;22;80236;-59
2023/05/08 04:35:39;;;;;;;5.25;1.75;;;22.60;46.60;;;;;;7614167;22;83219;-59
2023/05/08 04:38:40;;;;;;;2.75;1.30;;;22.60;46.60;;;;;;7600265;22;83394;-64
2023/05/08 04:41:41;;;;;;;2.47;1.58;;;22.70;47.20;;;;;;7602230;22;83150;-61
2023/05/08 04:44:42;;;;;;;6.82;1.58;;;22.70;47.90;;;;;;7611291;22;83208;-61
2023/05/08 04:47:43;;;;;;;2.03;1.38;;;22.80;48.20;;;;;;7614232;22;82711;-58
2023/05/08 04:50:44;;;;;;;9.00;1.70;;;22.80;48.20;;;;;;7614325;22;83085;-65
2023/05/08 04:53:44;;;;;;;3.13;1.50;;;22.80;48.20;;;;;;7610884;22;83197;-68
2023/05/08 04:56:46;;;;;;;3.00;1.50;;;22.80;48.10;;;;;;7614160;22;83269;-69
2023/05/08 04:59:46;;;;;;;6.68;1.80;;;22.80;47.60;;;;;;7640617;22;80689;-69
2023/05/08 05:02:47;;;;;;;10.20;2.45;;;22.80;48.10;;;;;;7613833;22;82201;-68
2023/05/08 05:05:48;;;;;;;2.80;1.55;;;22.80;48.00;;;;;;7612436;22;83342;-72
2023/05/08 05:08:49;;;;;;;6.72;1.85;;;22.80;48.20;;;;;;7638075;22;80843;-69
2023/05/08 05:11:49;;;;;;;3.40;1.77;;;22.80;48.00;;;;;;7635603;22;80930;-70
2023/05/08 05:14:50;;;;;;;3.17;1.80;;;22.80;47.80;;;;;;7610713;22;83148;-69
2023/05/08 05:17:51;;;;;;;4.28;1.80;;;22.80;47.00;;;;;;7584835;22;81455;-69
2023/05/08 05:20:51;;;;;;;4.60;1.77;;;22.80;47.00;;;;;;7456688;22;82146;-73
2023/05/08 05:23:52;;;;;;;5.85;1.85;;;22.80;46.60;;;;;;7530313;22;82493;-69
2023/05/08 05:26:53;;;;;;;3.20;1.88;;;22.80;46.60;;;;;;7612583;22;83597;-69
2023/05/08 05:29:53;;;;;;;6.25;1.70;;;22.80;46.70;;;;;;7640810;22;80673;-71
2023/05/08 05:32:54;;;;;;;4.88;1.58;;;22.80;46.50;;;;;;7609263;22;83067;-65
2023/05/08 05:35:54;;;;;;;3.33;1.60;;;22.80;46.60;;;;;;7610582;22;83830;-68
2023/05/08 05:38:55;;;;;;;5.75;1.60;;;22.80;46.50;;;;;;7629814;22;81081;-69
2023/05/08 05:41:55;;;;;;;2.60;1.27;;;22.80;46.50;;;;;;7642080;22;80866;-70
2023/05/08 05:44:56;;;;;;;2.95;1.77;;;22.80;46.40;;;;;;7613751;22;81504;-63
2023/05/08 05:47:57;;;;;;;4.18;1.80;;;22.80;46.30;;;;;;7614211;22;81854;-65
2023/05/08 05:50:59;;;;;;;1.88;1.60;;;22.80;46.00;;;;;;7615792;22;83009;-64
2023/05/08 05:54:00;;;;;;;3.28;1.80;;;22.80;45.90;;;;;;7605975;22;82985;-61
2023/05/08 05:57:01;;;;;;;5.13;1.80;;;22.80;45.80;;;;;;7640854;22;80121;-61
2023/05/08 06:00:02;;;;;;;4.07;1.70;;;22.80;45.80;;;;;;7614431;22;81988;-65
2023/05/08 06:03:04;;;;;;;2.30;1.50;;;22.90;45.90;;;;;;7641307;22;81244;-65
2023/05/08 06:06:04;;;;;;;2.58;1.80;;;22.80;45.70;;;;;;7606612;22;83039;-62
2023/05/08 06:09:06;;;;;;;5.07;1.92;;;22.80;45.90;;;;;;7642236;22;81227;-64
2023/05/08 06:12:07;;;;;;;4.90;2.03;;;22.80;45.90;;;;;;7642835;22;80068;-63
2023/05/08 06:15:08;;;;;;;2.00;1.80;;;22.90;46.00;;;;;;7614992;22;83036;-64
2023/05/08 06:18:09;;;;;;;3.03;1.95;;;22.90;45.90;;;;;;7613443;22;82384;-63
2023/05/08 06:21:10;;;;;;;3.25;1.52;;;22.90;45.90;;;;;;7612304;22;82825;-64
2023/05/08 06:24:11;;;;;;;3.05;1.88;;;22.90;45.90;;;;;;7614740;22;81207;-60
2023/05/08 06:27:11;;;;;;;1.83;1.42;;;22.90;45.80;;;;;;7643205;22;80711;-61
2023/05/08 06:30:12;;;;;;;3.75;2.10;;;23.00;45.80;;;;;;7642431;22;80010;-61
2023/05/08 06:33:12;;;;;;;2.58;1.80;;;23.00;45.80;;;;;;7637886;22;81407;-61
2023/05/08 06:36:13;;;;;;;2.60;1.90;;;23.00;45.80;;;;;;7611954;22;83383;-60
2023/05/08 06:39:13;;;;;;;2.80;1.60;;;23.00;45.70;;;;;;7641466;22;80112;-60
2023/05/08 06:42:14;;;;;;;5.03;1.95;;;23.00;45.50;;;;;;7626885;22;81300;-65
2023/05/08 06:45:18;;;;;;;4.32;2.00;;;23.00;45.40;;;;;;7612317;22;84389;-63
2023/05/08 06:48:19;;;;;;;4.32;1.95;;;23.00;45.40;;;;;;7614811;22;82502;-65
2023/05/08 06:51:21;;;;;;;2.28;1.50;;;23.00;45.30;;;;;;7639847;22;80531;-64
2023/05/08 06:54:22;;;;;;;2.03;1.55;;;23.10;45.20;;;;;;7615571;22;81892;-64
2023/05/08 06:57:25;;;;;;;2.05;1.60;;;23.10;45.30;;;;;;7634406;22;80706;-64
2023/05/08 07:00:26;;;;;;;2.38;1.65;;;23.10;45.20;;;;;;7642718;22;80860;-65
2023/05/08 07:03:26;;;;;;;2.80;1.67;;;23.10;45.10;;;;;;7638756;22;81076;-69
2023/05/08 07:06:27;;;;;;;2.67;1.58;;;23.10;45.00;;;;;;7635266;22;80783;-64
2023/05/08 07:09:28;;;;;;;3.88;1.83;;;23.10;44.70;;;;;;7642977;22;81261;-68
2023/05/08 07:12:28;;;;;;;5.18;1.58;;;23.20;44.80;;;;;;7641714;22;80727;-68
2023/05/08 07:15:29;;;;;;;3.08;1.80;;;23.20;45.00;;;;;;7641898;22;80411;-68
2023/05/08 07:18:29;;;;;;;2.10;1.73;;;23.20;44.60;;;;;;7636523;22;81175;-66
2023/05/08 07:21:30;;;;;;;2.97;1.50;;;23.20;44.60;;;;;;7643110;22;81583;-74
2023/05/08 07:24:30;;;;;;;2.15;1.77;;;23.20;44.40;;;;;;7642645;22;80269;-73
2023/05/08 07:27:31;;;;;;;1.67;1.58;;;23.20;44.40;;;;;;7642603;22;80792;-71
2023/05/08 07:30:32;;;;;;;2.05;1.63;;;23.20;44.40;;;;;;7642195;22;80332;-71
2023/05/08 07:33:33;;;;;;;2.00;1.65;;;23.30;44.40;;;;;;7638116;22;81397;-71
2023/05/08 07:36:34;;;;;;;2.55;1.55;;;23.30;44.30;;;;;;7643333;22;80168;-66
2023/05/08 07:39:34;;;;;;;4.07;2.03;;;23.30;44.30;;;;;;7642964;22;80540;-64
2023/05/08 07:42:35;;;;;;;2.10;1.85;;;23.30;44.30;;;;;;7642499;22;80854;-64
2023/05/08 07:45:35;;;;;;;2.63;1.70;;;23.30;44.00;;;;;;7641423;22;80464;-65
2023/05/08 07:51:42;;;;;;;3.05;1.70;;;23.30;44.10;;;;;;7629475;22;82579;-66
2023/05/08 07:54:43;;;;;;;4.25;1.98;;;23.30;44.10;;;;;;7644068;22;80351;-71
2023/05/08 07:57:43;;;;;;;2.63;1.70;;;23.30;44.00;;;;;;7642398;22;80556;-72
2023/05/08 08:00:44;;;;;;;2.28;1.67;;;23.30;44.20;;;;;;7642527;22;80164;-70
2023/05/08 08:03:44;;;;;;;2.97;2.28;;;23.30;44.20;;;;;;7640063;22;80662;-67
2023/05/08 08:06:45;;;;;;;5.20;2.20;;;23.30;44.10;;;;;;7643231;22;83349;-67
2023/05/08 08:09:46;;;;;;;2.40;1.60;;;23.30;44.30;;;;;;7643977;22;80572;-68
2023/05/08 08:12:46;;;;;;;3.92;2.30;;;23.30;44.20;;;;;;7643821;22;80721;-69
2023/05/08 08:15:47;;;;;;;2.70;1.70;;;23.30;44.20;;;;;;7642888;22;80375;-69
2023/05/08 08:18:47;;;;;;;3.33;1.70;;;23.30;44.30;;;;;;7639986;22;81531;-66
2023/05/08 08:21:48;;;;;;;2.95;1.77;;;23.30;44.20;;;;;;7643429;22;80485;-67
2023/05/08 08:24:48;;;;;;;2.65;1.75;;;23.30;44.00;;;;;;7635768;22;80399;-68
2023/05/08 08:27:49;;;;;;;4.82;2.15;;;23.20;43.90;;;;;;7638281;22;80474;-69
2023/05/08 08:30:50;;;;;;;3.10;2.00;;;23.20;44.00;;;;;;7633223;22;82251;-66
2023/05/08 08:33:50;;;;;;;3.28;1.90;;;23.20;43.90;;;;;;7641620;22;81414;-64
2023/05/08 08:36:51;;;;;;;2.92;1.67;;;23.20;43.90;;;;;;7641868;22;81194;-67
2023/05/08 08:39:51;;;;;;;1.80;1.55;;;23.20;44.00;;;;;;7643814;22;80609;-66
2023/05/08 08:42:52;;;;;;;2.20;1.75;;;23.20;43.80;;;;;;7637768;22;81077;-63
2023/05/08 08:45:52;;;;;;;2.92;1.65;;;23.30;43.90;;;;;;7632514;22;81155;-65
2023/05/08 08:48:53;;;;;;;2.72;1.92;;;23.20;44.10;;;;;;7554465;22;82803;-67
2023/05/08 08:51:56;;;;;;;2.25;1.50;;;23.20;44.30;;;;;;7488052;22;83017;-66
2023/05/08 08:55:03;;;;;;;1.85;1.48;;;23.30;44.10;;;;;;7120969;22;83933;-62
2023/05/08 08:58:04;;;;;;;4.20;2.13;;;23.30;43.90;;;;;;6768789;22;83162;-66
2023/05/08 09:01:05;;;;;;;5.15;1.98;;;23.30;43.90;;;;;;7244196;23;83876;-67
2023/05/08 09:04:05;;;;;;;4.95;1.90;;;23.40;43.80;;;;;;7481560;23;81922;-67
2023/05/08 09:07:07;;;;;;;2.70;2.05;;;23.40;43.80;;;;;;7600190;23;80329;-63
2023/05/08 09:10:14;;;;;;;2.38;1.65;;;23.40;44.40;;;;;;7574479;23;81737;-64
2023/05/08 09:13:14;;;;;;;2.92;1.80;;;23.40;43.70;;;;;;7605891;23;80294;-64
2023/05/08 09:16:15;;;;;;;4.32;1.75;;;23.40;43.70;;;;;;7601296;23;80709;-64
2023/05/08 09:19:15;;;;;;;3.45;1.90;;;23.30;43.60;;;;;;7606378;23;80303;-59
2023/05/08 09:22:16;;;;;;;8.30;1.88;;;23.40;43.60;;;;;;7602513;23;80302;-63
2023/05/08 09:25:17;;;;;;;37.63;3.20;;;23.30;43.50;;;;;;7604271;23;80299;-63
2023/05/08 09:28:18;;;;;;;7.82;2.45;;;23.30;43.50;;;;;;7605468;23;80132;-67
2023/05/08 09:31:18;;;;;;;42.25;3.50;;;23.30;43.60;;;;;;7603318;23;81160;-70
2023/05/08 09:34:19;;;;;;;46.33;3.78;;;23.30;43.60;;;;;;7606434;23;80534;-67
2023/05/08 09:37:19;;;;;;;24.08;3.22;;;23.40;43.60;;;;;;7604424;23;80473;-67
2023/05/08 09:40:20;;;;;;;25.13;2.80;;;23.30;43.60;;;;;;7604999;23;87626;-68
2023/05/08 09:43:20;;;;;;;15.80;2.80;;;23.30;43.60;;;;;;7602703;23;80790;-63
2023/05/08 09:46:21;;;;;;;18.00;2.55;;;23.30;43.70;;;;;;7606470;23;80689;-62
2023/05/08 09:49:21;;;;;;;12.10;2.25;;;23.30;43.60;;;;;;7606664;23;80296;-61
2023/05/08 09:52:22;;;;;;;20.25;2.80;;;23.30;43.40;;;;;;7605197;23;80482;-62
2023/05/08 09:55:23;;;;;;;13.50;2.30;;;23.30;43.50;;;;;;7606437;23;81125;-62
2023/05/08 09:58:25;;;;;;;21.17;2.97;;;23.30;43.50;;;;;;7601904;23;81428;-63
2023/05/08 10:01:25;;;;;;;14.40;2.28;;;23.30;43.40;;;;;;7605968;23;80456;-61
2023/05/08 10:04:26;;;;;;;17.42;2.58;;;23.30;43.50;;;;;;7578991;23;81498;-54
2023/05/08 10:07:27;;;;;;;22.15;2.63;;;23.30;43.50;;;;;;7605964;23;80168;-62
2023/05/08 10:10:27;;;;;;;9.30;2.63;;;23.30;43.20;;;;;;7605527;23;80456;-63
2023/05/08 10:13:28;;;;;;;8.70;2.17;;;23.30;43.40;;;;;;7571854;23;82002;-62
2023/05/08 10:16:28;;;;;;;5.90;2.28;;;23.30;43.50;;;;;;7603423;23;80977;-63
2023/05/08 10:19:30;;;;;;;5.03;2.15;;;23.30;43.50;;;;;;7599370;23;81181;-62
2023/05/08 10:22:31;;;;;;;7.30;2.10;;;23.30;43.60;;;;;;7600908;23;80927;-61
2023/05/08 10:25:31;;;;;;;4.38;2.35;;;23.30;43.60;;;;;;7565307;23;82399;-63
2023/05/08 10:28:32;;;;;;;3.70;2.30;;;23.40;43.80;;;;;;7598696;23;80343;-63
2023/05/08 10:31:32;;;;;;;3.78;2.13;;;23.30;43.60;;;;;;7603330;23;80743;-63
2023/05/08 10:34:33;;;;;;;5.93;2.17;;;23.30;43.80;;;;;;7604487;23;82706;-64
2023/05/08 10:37:34;;;;;;;4.18;1.75;;;23.30;43.70;;;;;;7602418;23;80475;-62
2023/05/08 10:40:35;;;;;;;2.47;1.90;;;23.30;43.80;;;;;;7604785;23;82110;-64
2023/05/08 10:43:35;;;;;;;3.17;2.30;;;23.30;43.70;;;;;;7602254;23;79896;-64
2023/05/08 10:46:36;;;;;;;10.95;2.20;;;23.30;43.60;;;;;;7602198;23;80831;-64
2023/05/08 10:49:37;;;;;;;7.68;2.78;;;23.30;43.60;;;;;;7605452;23;80819;-60
2023/05/08 10:52:37;;;;;;;7.78;2.15;;;23.30;43.60;;;;;;7583941;23;81096;-64
2023/05/08 10:55:38;;;;;;;3.30;2.30;;;23.40;43.60;;;;;;7599387;23;81826;-63
2023/05/08 10:58:39;;;;;;;5.53;2.22;;;23.30;43.50;;;;;;7606458;23;80248;-71
2023/05/08 11:01:39;;;;;;;3.50;2.20;;;23.30;43.60;;;;;;7600557;23;80245;-71
2023/05/08 11:04:40;;;;;;;2.88;2.22;;;23.40;43.60;;;;;;7571276;23;87268;-68
2023/05/08 11:07:41;;;;;;;3.78;2.03;;;23.40;43.50;;;;;;7596491;23;81139;-68
2023/05/08 11:10:41;;;;;;;4.35;2.47;;;23.40;43.50;;;;;;7597369;23;80867;-69
2023/05/08 11:13:42;;;;;;;2.83;2.25;;;23.40;43.40;;;;;;7604350;23;81224;-66
2023/05/08 11:16:42;;;;;;;5.05;2.70;;;23.40;44.20;;;;;;7602800;23;80525;-62
2023/05/08 11:19:44;;;;;;;3.55;2.33;;;23.40;43.40;;;;;;7600939;23;81114;-63
2023/05/08 11:22:45;;;;;;;3.78;2.25;;;23.40;43.40;;;;;;7595298;23;80341;-64
2023/05/08 11:25:45;;;;;;;4.00;2.53;;;23.40;43.20;;;;;;7598855;23;80288;-65
2023/05/08 11:28:46;;;;;;;2.80;2.50;;;23.40;43.20;;;;;;7601533;23;80461;-66
2023/05/08 11:31:46;;;;;;;8.27;2.30;;;23.40;43.20;;;;;;7599949;23;80545;-62
2023/05/08 11:34:48;;;;;;;4.53;2.20;;;23.50;43.30;;;;;;7599667;23;80487;-66
2023/05/08 11:37:48;;;;;;;4.82;2.17;;;23.50;43.30;;;;;;7602927;23;81294;-63
2023/05/08 11:40:49;;;;;;;4.95;2.30;;;23.50;43.40;;;;;;7596548;23;82079;-63
2023/05/08 11:43:49;;;;;;;7.55;2.50;;;23.40;44.10;;;;;;7605977;23;81372;-65
2023/05/08 11:46:50;;;;;;;4.25;2.00;;;23.40;44.30;;;;;;7604712;23;81729;-66
2023/05/08 11:49:51;;;;;;;7.18;2.35;;;23.50;45.80;;;;;;7605401;23;80698;-65
2023/05/08 11:52:51;;;;;;;4.35;2.25;;;23.50;47.50;;;;;;7605022;23;82019;-63
2023/05/08 11:55:52;;;;;;;2.83;2.22;;;23.50;47.10;;;;;;7599712;23;80716;-66
2023/05/08 11:58:52;;;;;;;4.90;2.30;;;23.50;47.70;;;;;;7606958;23;80489;-69
2023/05/08 12:01:53;;;;;;;3.28;2.25;;;23.50;49.00;;;;;;7602320;23;81254;-60
2023/05/08 12:04:54;;;;;;;4.00;1.92;;;23.30;44.30;;;;;;7606271;23;81917;-64
2023/05/08 12:07:54;;;;;;;8.45;2.63;;;23.10;43.60;;;;;;7580326;23;80860;-63
2023/05/08 12:10:55;;;;;;;5.20;1.67;;;23.10;43.10;;;;;;7602206;23;80216;-65
2023/05/08 12:13:56;;;;;;;3.60;2.22;;;22.90;42.50;;;;;;7603583;23;80224;-64
2023/05/08 12:16:56;;;;;;;3.90;2.33;;;22.90;42.80;;;;;;7600050;23;80847;-66
2023/05/08 12:20:02;;;;;;;10.13;2.45;;;22.90;43.60;;;;;;7606599;23;80373;-58
2023/05/08 12:23:03;;;;;;;5.30;2.30;;;22.90;43.80;;;;;;7602636;23;81253;-58
2023/05/08 12:26:03;;;;;;;7.93;2.83;;;22.90;43.10;;;;;;7606504;23;80272;-66
2023/05/08 12:29:04;;;;;;;7.03;2.45;;;22.90;43.20;;;;;;7603288;23;80420;-65
2023/05/08 12:32:05;;;;;;;7.18;2.38;;;22.90;43.20;;;;;;7603030;23;81107;-65
2023/05/08 12:35:05;;;;;;;6.65;2.55;;;22.90;43.00;;;;;;7599943;23;85011;-65
2023/05/08 12:38:06;;;;;;;7.28;2.63;;;22.90;42.40;;;;;;7601317;23;80230;-67
2023/05/08 12:41:08;;;;;;;4.97;1.75;;;22.90;42.50;;;;;;7599647;23;80564;-64
2023/05/08 12:44:09;;;;;;;6.80;2.25;;;22.90;41.90;;;;;;7601467;23;80574;-65
2023/05/08 12:47:10;;;;;;;2.80;1.52;;;22.80;41.90;;;;;;7600729;23;80446;-65
2023/05/08 12:50:10;;;;;;;3.83;2.10;;;22.80;41.70;;;;;;7601983;23;80364;-65
2023/05/08 12:53:11;;;;;;;2.10;1.80;;;22.80;41.50;;;;;;7599447;23;80371;-64
2023/05/08 12:56:12;;;;;;;3.70;2.00;;;22.70;40.90;;;;;;7600608;23;80368;-64
2023/05/08 12:59:12;;;;;;;3.33;2.10;;;22.70;40.80;;;;;;7602815;23;80508;-66
2023/05/08 13:02:13;;;;;;;5.20;2.55;;;22.70;40.80;;;;;;7602878;23;80245;-67
2023/05/08 13:05:13;;;;;;;6.43;1.83;;;22.60;40.70;;;;;;7605523;23;80471;-65
2023/05/08 13:08:14;;;;;;;3.55;2.00;;;22.60;40.40;;;;;;7603642;23;80925;-62
2023/05/08 13:11:15;;;;;;;4.65;1.80;;;22.40;40.00;;;;;;7594559;23;80440;-69
2023/05/08 13:14:15;;;;;;;3.08;1.92;;;22.40;43.10;;;;;;7606130;23;81155;-61
2023/05/08 13:17:16;;;;;;;3.75;2.20;;;22.60;44.40;;;;;;7605535;23;80255;-61
2023/05/08 13:20:16;;;;;;;3.58;1.83;;;22.70;46.20;;;;;;7605997;23;80286;-65
2023/05/08 13:23:17;;;;;;;2.55;1.83;;;22.80;47.40;;;;;;7602327;23;80348;-63
2023/05/08 13:26:17;;;;;;;2.58;1.70;;;22.80;48.00;;;;;;7602796;23;80262;-67
2023/05/08 13:29:20;;;;;;;4.95;2.15;;;22.90;49.20;;;;;;7605592;23;80739;-70
2023/05/08 13:32:21;;;;;;;2.60;1.83;;;22.90;50.20;;;;;;7604474;23;80645;-72
2023/05/08 13:35:22;;;;;;;5.05;1.90;;;22.90;50.10;;;;;;7602857;23;80387;-70
2023/05/08 13:38:22;;;;;;;5.22;1.98;;;23.00;51.20;;;;;;7601368;23;80111;-64
2023/05/08 13:41:23;;;;;;;3.20;1.90;;;23.00;52.00;;;;;;7600785;23;80091;-59
2023/05/08 13:44:23;;;;;;;2.95;1.90;;;23.00;52.10;;;;;;7603887;23;81310;-61
2023/05/08 13:47:24;;;;;;;5.47;1.70;;;23.00;52.70;;;;;;7601921;23;80328;-62
2023/05/08 13:50:24;;;;;;;2.30;1.52;;;23.00;53.10;;;;;;7602264;23;80782;-62
2023/05/08 13:53:25;;;;;;;5.18;2.08;;;23.00;53.90;;;;;;7598489;23;81698;-62
2023/05/08 13:56:25;;;;;;;2.97;2.03;;;23.00;54.00;;;;;;7601821;23;81214;-61
2023/05/08 13:59:26;;;;;;;2.78;1.70;;;23.00;53.90;;;;;;7599502;23;80215;-59
2023/05/08 14:02:26;;;;;;;4.88;1.92;;;23.10;54.20;;;;;;7604119;23;81050;-61
2023/05/08 14:05:27;;;;;;;3.58;1.95;;;23.10;53.90;;;;;;7603315;23;80377;-59
2023/05/08 14:08:27;;;;;;;4.18;2.10;;;23.10;54.80;;;;;;7604709;23;80747;-60
2023/05/08 14:11:28;;;;;;;4.22;1.75;;;23.10;54.20;;;;;;7605139;23;80681;-59
2023/05/08 14:14:28;;;;;;;5.45;2.10;;;23.10;54.40;;;;;;7604797;23;81327;-60
2023/05/08 14:17:29;;;;;;;3.13;1.70;;;23.10;54.60;;;;;;7604039;23;80213;-58
2023/05/08 14:20:30;;;;;;;2.58;2.20;;;23.10;54.90;;;;;;7602860;23;80029;-61
2023/05/08 14:23:30;;;;;;;3.63;2.10;;;23.10;55.10;;;;;;7579252;23;80315;-59
2023/05/08 14:26:31;;;;;;;2.45;1.52;;;23.10;55.20;;;;;;7602124;23;80638;-59
2023/05/08 14:29:31;;;;;;;4.47;1.92;;;23.10;54.40;;;;;;7603282;23;80231;-62
2023/05/08 14:32:32;;;;;;;6.50;2.45;;;23.10;55.40;;;;;;7603835;23;80650;-60
2023/05/08 14:35:32;;;;;;;2.40;1.80;;;23.10;54.70;;;;;;7603777;23;79983;-60
2023/05/08 14:38:33;;;;;;;3.28;2.15;;;23.10;54.20;;;;;;7604364;23;80908;-66
2023/05/08 14:41:33;;;;;;;5.28;2.58;;;23.10;55.30;;;;;;7604920;23;80224;-66
2023/05/08 14:44:34;;;;;;;3.15;1.80;;;23.10;55.50;;;;;;7605253;23;80606;-67
2023/05/08 14:47:34;;;;;;;4.53;1.92;;;23.10;54.60;;;;;;7604010;23;80505;-67
2023/05/08 14:50:35;;;;;;;6.00;2.50;;;23.10;55.10;;;;;;7604532;23;81773;-66
2023/05/08 14:53:35;;;;;;;5.47;1.95;;;23.10;55.40;;;;;;7604613;23;80631;-66
2023/05/08 14:56:36;;;;;;;6.10;2.65;;;23.10;55.50;;;;;;7603126;23;80324;-63
2023/05/08 14:59:36;;;;;;;4.90;2.15;;;23.10;54.80;;;;;;7577294;23;83431;-64
2023/05/08 15:02:37;;;;;;;5.70;2.55;;;23.10;54.80;;;;;;7602890;23;81268;-62
2023/05/08 15:05:37;;;;;;;3.90;2.33;;;23.10;54.50;;;;;;7604090;23;80428;-63
2023/05/08 15:08:38;;;;;;;4.50;2.30;;;23.00;55.60;;;;;;7605345;23;79976;-62
2023/05/08 15:11:39;;;;;;;5.45;2.33;;;23.00;56.30;;;;;;7593145;23;81732;-65
2023/05/08 15:14:39;;;;;;;4.32;2.20;;;23.00;54.80;;;;;;7600462;23;80849;-66
2023/05/08 15:17:40;;;;;;;4.32;2.40;;;23.00;55.20;;;;;;7589762;23;81206;-62
2023/05/08 15:20:40;;;;;;;5.70;2.42;;;23.00;54.50;;;;;;7599464;23;80358;-63
2023/05/08 15:23:41;;;;;;;6.10;2.58;;;23.00;54.70;;;;;;7602996;23;80794;-61
2023/05/08 15:26:41;;;;;;;5.57;2.50;;;23.00;54.50;;;;;;7600029;23;80159;-62
2023/05/08 15:29:42;;;;;;;6.43;2.92;;;23.00;54.80;;;;;;7597853;23;80216;-63
2023/05/08 15:32:42;;;;;;;4.18;2.38;;;23.00;55.40;;;;;;7599364;23;81097;-63
2023/05/08 15:35:43;;;;;;;8.77;2.20;;;23.00;55.10;;;;;;7601969;23;80333;-63
2023/05/08 15:38:44;;;;;;;5.20;2.20;;;23.00;55.10;;;;;;7572436;23;81700;-63
2023/05/08 15:41:44;;;;;;;8.05;2.38;;;23.00;55.10;;;;;;7600432;23;81037;-64